sensor_id;sensor_type;location;lat;lon;timestamp;P1;durP1;ratioP1;P2;durP2;ratioP2
815;SDS011;25928;51.062;13.752;2023-01-30T00:01:05;14.03;;;9.03;;
815;SDS011;25928;51.062;13.752;2023-01-30T00:03:31;12.13;;;8.70;;
815;SDS011;25928;51.062;13.752;2023-01-30T00:05:58;9.90;;;7.50;;
815;SDS011;25928;51.062;13.752;2023-01-30T00:08:23;10.80;;;8.63;;
815;SDS011;25928;51.062;13.752;2023-01-30T00:10:49;12.40;;;7.80;;
815;SDS011;25928;51.062;13.752;2023-01-30T00:13:15;10.17;;;8.07;;
815;SDS011;25928;51.062;13.752;2023-01-30T00:15:41;9.60;;;7.40;;
815;SDS011;25928;51.062;13.752;2023-01-30T00:18:07;13.57;;;7.40;;
815;SDS011;25928;51.062;13.752;2023-01-30T00:20:33;9.77;;;7.70;;
815;SDS011;25928;51.062;13.752;2023-01-30T00:22:59;10.23;;;7.80;;
815;SDS011;25928;51.062;13.752;2023-01-30T00:25:25;12.53;;;7.10;;
815;SDS011;25928;51.062;13.752;2023-01-30T00:27:51;10.50;;;8.47;;
815;SDS011;25928;51.062;13.752;2023-01-30T00:30:17;10.00;;;7.63;;
815;SDS011;25928;51.062;13.752;2023-01-30T00:32:43;11.20;;;8.57;;
815;SDS011;25928;51.062;13.752;2023-01-30T00:35:08;10.13;;;7.60;;
815;SDS011;25928;51.062;13.752;2023-01-30T00:37:34;9.30;;;7.60;;
815;SDS011;25928;51.062;13.752;2023-01-30T00:39:59;11.13;;;8.03;;
815;SDS011;25928;51.062;13.752;2023-01-30T00:42:25;8.53;;;5.97;;
815;SDS011;25928;51.062;13.752;2023-01-30T00:45:10;8.93;;;7.97;;
815;SDS011;25928;51.062;13.752;2023-01-30T00:47:54;20.33;;;8.17;;
815;SDS011;25928;51.062;13.752;2023-01-30T00:50:21;11.30;;;9.00;;
815;SDS011;25928;51.062;13.752;2023-01-30T00:52:47;12.07;;;8.27;;
815;SDS011;25928;51.062;13.752;2023-01-30T00:55:12;10.03;;;8.47;;
815;SDS011;25928;51.062;13.752;2023-01-30T00:57:39;10.40;;;7.93;;
815;SDS011;25928;51.062;13.752;2023-01-30T01:00:05;9.30;;;7.50;;
815;SDS011;25928;51.062;13.752;2023-01-30T01:02:33;10.67;;;8.10;;
815;SDS011;25928;51.062;13.752;2023-01-30T01:04:59;11.50;;;8.73;;
815;SDS011;25928;51.062;13.752;2023-01-30T01:07:25;11.03;;;7.97;;
815;SDS011;25928;51.062;13.752;2023-01-30T01:13:17;9.93;;;7.80;;
815;SDS011;25928;51.062;13.752;2023-01-30T01:15:42;10.60;;;8.03;;
815;SDS011;25928;51.062;13.752;2023-01-30T01:18:08;11.23;;;8.00;;
815;SDS011;25928;51.062;13.752;2023-01-30T01:20:33;10.00;;;7.73;;
815;SDS011;25928;51.062;13.752;2023-01-30T01:22:59;8.97;;;7.47;;
815;SDS011;25928;51.062;13.752;2023-01-30T01:25:25;11.43;;;8.17;;
815;SDS011;25928;51.062;13.752;2023-01-30T01:27:50;10.70;;;6.70;;
815;SDS011;25928;51.062;13.752;2023-01-30T01:30:16;9.80;;;7.80;;
815;SDS011;25928;51.062;13.752;2023-01-30T01:32:42;9.50;;;7.50;;
815;SDS011;25928;51.062;13.752;2023-01-30T01:35:08;11.07;;;7.83;;
815;SDS011;25928;51.062;13.752;2023-01-30T01:37:34;9.43;;;7.53;;
815;SDS011;25928;51.062;13.752;2023-01-30T01:40:00;8.87;;;7.30;;
815;SDS011;25928;51.062;13.752;2023-01-30T01:42:44;9.80;;;8.30;;
815;SDS011;25928;51.062;13.752;2023-01-30T01:50:22;12.03;;;8.30;;
815;SDS011;25928;51.062;13.752;2023-01-30T01:53:03;11.40;;;8.90;;
815;SDS011;25928;51.062;13.752;2023-01-30T01:55:30;9.40;;;7.73;;
815;SDS011;25928;51.062;13.752;2023-01-30T01:57:58;10.60;;;8.10;;
815;SDS011;25928;51.062;13.752;2023-01-30T02:00:51;13.03;;;8.60;;
815;SDS011;25928;51.062;13.752;2023-01-30T02:03:20;11.17;;;8.97;;
815;SDS011;25928;51.062;13.752;2023-01-30T02:05:49;10.90;;;7.47;;
815;SDS011;25928;51.062;13.752;2023-01-30T02:08:23;11.27;;;7.53;;
815;SDS011;25928;51.062;13.752;2023-01-30T02:11:11;10.43;;;7.43;;
815;SDS011;25928;51.062;13.752;2023-01-30T02:13:48;10.30;;;7.33;;
815;SDS011;25928;51.062;13.752;2023-01-30T02:16:15;11.60;;;8.27;;
815;SDS011;25928;51.062;13.752;2023-01-30T02:18:41;10.27;;;8.20;;
815;SDS011;25928;51.062;13.752;2023-01-30T02:24:24;13.43;;;7.40;;
815;SDS011;25928;51.062;13.752;2023-01-30T02:27:16;10.50;;;8.40;;
815;SDS011;25928;51.062;13.752;2023-01-30T02:37:56;10.80;;;8.33;;
815;SDS011;25928;51.062;13.752;2023-01-30T02:43:45;10.90;;;8.20;;
815;SDS011;25928;51.062;13.752;2023-01-30T02:49:22;10.20;;;8.03;;
815;SDS011;25928;51.062;13.752;2023-01-30T02:51:55;10.70;;;8.23;;
815;SDS011;25928;51.062;13.752;2023-01-30T02:54:24;11.00;;;8.00;;
815;SDS011;25928;51.062;13.752;2023-01-30T02:56:51;12.37;;;9.10;;
815;SDS011;25928;51.062;13.752;2023-01-30T02:59:21;11.13;;;7.73;;
815;SDS011;25928;51.062;13.752;2023-01-30T03:02:13;8.47;;;7.40;;
815;SDS011;25928;51.062;13.752;2023-01-30T03:10:28;11.43;;;7.93;;
815;SDS011;25928;51.062;13.752;2023-01-30T03:15:47;9.87;;;7.60;;
815;SDS011;25928;51.062;13.752;2023-01-30T03:18:17;9.23;;;7.30;;
815;SDS011;25928;51.062;13.752;2023-01-30T03:20:43;10.93;;;8.33;;
815;SDS011;25928;51.062;13.752;2023-01-30T03:23:09;8.60;;;6.90;;
815;SDS011;25928;51.062;13.752;2023-01-30T03:25:36;7.97;;;7.17;;
815;SDS011;25928;51.062;13.752;2023-01-30T03:28:03;8.97;;;6.93;;
815;SDS011;25928;51.062;13.752;2023-01-30T03:30:30;8.57;;;7.30;;
815;SDS011;25928;51.062;13.752;2023-01-30T03:32:56;7.80;;;6.80;;
815;SDS011;25928;51.062;13.752;2023-01-30T03:35:22;9.60;;;7.07;;
815;SDS011;25928;51.062;13.752;2023-01-30T03:37:48;9.30;;;7.00;;
815;SDS011;25928;51.062;13.752;2023-01-30T03:40:13;8.90;;;6.73;;
815;SDS011;25928;51.062;13.752;2023-01-30T03:42:41;8.80;;;6.80;;
815;SDS011;25928;51.062;13.752;2023-01-30T03:45:07;10.70;;;7.20;;
815;SDS011;25928;51.062;13.752;2023-01-30T03:47:33;11.73;;;6.67;;
815;SDS011;25928;51.062;13.752;2023-01-30T03:49:59;9.80;;;6.23;;
815;SDS011;25928;51.062;13.752;2023-01-30T03:52:24;9.53;;;6.77;;
815;SDS011;25928;51.062;13.752;2023-01-30T03:54:50;9.10;;;6.93;;
815;SDS011;25928;51.062;13.752;2023-01-30T03:57:16;7.57;;;6.00;;
815;SDS011;25928;51.062;13.752;2023-01-30T03:59:42;7.70;;;6.20;;
815;SDS011;25928;51.062;13.752;2023-01-30T04:02:07;10.80;;;6.77;;
815;SDS011;25928;51.062;13.752;2023-01-30T04:04:33;9.33;;;6.47;;
815;SDS011;25928;51.062;13.752;2023-01-30T04:06:59;8.73;;;6.20;;
815;SDS011;25928;51.062;13.752;2023-01-30T04:09:25;8.13;;;6.70;;
815;SDS011;25928;51.062;13.752;2023-01-30T04:11:50;8.23;;;6.43;;
815;SDS011;25928;51.062;13.752;2023-01-30T04:14:16;7.50;;;6.10;;
815;SDS011;25928;51.062;13.752;2023-01-30T04:16:42;7.50;;;5.60;;
815;SDS011;25928;51.062;13.752;2023-01-30T04:19:07;10.30;;;6.90;;
815;SDS011;25928;51.062;13.752;2023-01-30T04:21:33;11.03;;;7.10;;
815;SDS011;25928;51.062;13.752;2023-01-30T04:23:59;8.50;;;6.60;;
815;SDS011;25928;51.062;13.752;2023-01-30T04:26:24;7.23;;;6.00;;
815;SDS011;25928;51.062;13.752;2023-01-30T04:28:50;8.97;;;6.90;;
815;SDS011;25928;51.062;13.752;2023-01-30T04:31:15;8.50;;;7.20;;
815;SDS011;25928;51.062;13.752;2023-01-30T04:33:41;8.13;;;6.47;;
815;SDS011;25928;51.062;13.752;2023-01-30T04:36:07;8.60;;;7.30;;
815;SDS011;25928;51.062;13.752;2023-01-30T04:38:34;8.63;;;7.27;;
815;SDS011;25928;51.062;13.752;2023-01-30T04:41:00;8.80;;;6.70;;
815;SDS011;25928;51.062;13.752;2023-01-30T04:43:27;8.30;;;7.27;;
815;SDS011;25928;51.062;13.752;2023-01-30T04:45:54;9.23;;;6.97;;
815;SDS011;25928;51.062;13.752;2023-01-30T04:48:20;13.67;;;7.53;;
815;SDS011;25928;51.062;13.752;2023-01-30T04:50:48;9.80;;;7.77;;
815;SDS011;25928;51.062;13.752;2023-01-30T04:53:15;9.17;;;6.60;;
815;SDS011;25928;51.062;13.752;2023-01-30T04:55:41;8.73;;;6.50;;
815;SDS011;25928;51.062;13.752;2023-01-30T04:58:07;10.13;;;7.07;;
815;SDS011;25928;51.062;13.752;2023-01-30T05:00:33;10.60;;;8.27;;
815;SDS011;25928;51.062;13.752;2023-01-30T05:02:58;9.23;;;7.23;;
815;SDS011;25928;51.062;13.752;2023-01-30T05:05:25;10.43;;;8.17;;
815;SDS011;25928;51.062;13.752;2023-01-30T05:07:51;9.67;;;7.50;;
815;SDS011;25928;51.062;13.752;2023-01-30T05:10:18;9.47;;;7.73;;
815;SDS011;25928;51.062;13.752;2023-01-30T05:12:44;10.20;;;7.47;;
815;SDS011;25928;51.062;13.752;2023-01-30T05:15:11;11.37;;;7.57;;
815;SDS011;25928;51.062;13.752;2023-01-30T05:17:37;8.50;;;6.77;;
815;SDS011;25928;51.062;13.752;2023-01-30T05:20:04;8.83;;;7.00;;
815;SDS011;25928;51.062;13.752;2023-01-30T05:22:30;9.77;;;7.23;;
815;SDS011;25928;51.062;13.752;2023-01-30T05:24:56;9.90;;;7.60;;
815;SDS011;25928;51.062;13.752;2023-01-30T05:27:22;8.87;;;6.60;;
815;SDS011;25928;51.062;13.752;2023-01-30T05:29:47;10.43;;;8.30;;
815;SDS011;25928;51.062;13.752;2023-01-30T05:32:13;7.37;;;6.57;;
815;SDS011;25928;51.062;13.752;2023-01-30T05:34:40;7.60;;;6.63;;
815;SDS011;25928;51.062;13.752;2023-01-30T05:37:06;9.50;;;7.70;;
815;SDS011;25928;51.062;13.752;2023-01-30T05:39:32;7.93;;;6.03;;
815;SDS011;25928;51.062;13.752;2023-01-30T05:41:57;9.97;;;7.47;;
815;SDS011;25928;51.062;13.752;2023-01-30T05:44:23;8.93;;;6.73;;
815;SDS011;25928;51.062;13.752;2023-01-30T05:46:48;9.03;;;7.43;;
815;SDS011;25928;51.062;13.752;2023-01-30T05:49:15;9.20;;;7.10;;
815;SDS011;25928;51.062;13.752;2023-01-30T05:51:41;11.03;;;9.10;;
815;SDS011;25928;51.062;13.752;2023-01-30T05:54:06;10.07;;;8.00;;
815;SDS011;25928;51.062;13.752;2023-01-30T05:56:32;10.20;;;7.00;;
815;SDS011;25928;51.062;13.752;2023-01-30T05:58:58;10.90;;;8.57;;
815;SDS011;25928;51.062;13.752;2023-01-30T06:01:25;9.70;;;7.37;;
815;SDS011;25928;51.062;13.752;2023-01-30T06:03:52;12.67;;;8.20;;
815;SDS011;25928;51.062;13.752;2023-01-30T06:06:17;11.23;;;8.27;;
815;SDS011;25928;51.062;13.752;2023-01-30T06:08:44;10.53;;;8.93;;
815;SDS011;25928;51.062;13.752;2023-01-30T06:11:11;12.33;;;8.50;;
815;SDS011;25928;51.062;13.752;2023-01-30T06:13:38;7.20;;;6.47;;
815;SDS011;25928;51.062;13.752;2023-01-30T06:16:04;10.87;;;7.10;;
815;SDS011;25928;51.062;13.752;2023-01-30T06:18:31;8.03;;;6.83;;
815;SDS011;25928;51.062;13.752;2023-01-30T06:20:56;7.03;;;6.33;;
815;SDS011;25928;51.062;13.752;2023-01-30T06:23:22;9.93;;;7.83;;
815;SDS011;25928;51.062;13.752;2023-01-30T06:25:49;9.97;;;8.13;;
815;SDS011;25928;51.062;13.752;2023-01-30T06:28:15;8.67;;;6.97;;
815;SDS011;25928;51.062;13.752;2023-01-30T06:30:41;9.70;;;7.80;;
815;SDS011;25928;51.062;13.752;2023-01-30T06:36:14;8.93;;;7.07;;
815;SDS011;25928;51.062;13.752;2023-01-30T06:38:39;8.63;;;7.40;;
815;SDS011;25928;51.062;13.752;2023-01-30T06:41:05;10.27;;;7.90;;
815;SDS011;25928;51.062;13.752;2023-01-30T06:43:31;10.23;;;8.53;;
815;SDS011;25928;51.062;13.752;2023-01-30T06:45:59;8.20;;;6.93;;
815;SDS011;25928;51.062;13.752;2023-01-30T06:48:25;7.60;;;6.80;;
815;SDS011;25928;51.062;13.752;2023-01-30T06:50:51;10.13;;;7.33;;
815;SDS011;25928;51.062;13.752;2023-01-30T06:53:17;11.43;;;8.10;;
815;SDS011;25928;51.062;13.752;2023-01-30T06:55:42;10.03;;;6.73;;
815;SDS011;25928;51.062;13.752;2023-01-30T06:58:09;7.53;;;6.73;;
815;SDS011;25928;51.062;13.752;2023-01-30T07:00:36;9.73;;;7.60;;
815;SDS011;25928;51.062;13.752;2023-01-30T07:03:04;10.43;;;7.67;;
815;SDS011;25928;51.062;13.752;2023-01-30T07:05:33;8.87;;;7.37;;
815;SDS011;25928;51.062;13.752;2023-01-30T07:08:01;9.20;;;7.30;;
815;SDS011;25928;51.062;13.752;2023-01-30T07:10:26;11.30;;;8.20;;
815;SDS011;25928;51.062;13.752;2023-01-30T07:12:53;11.90;;;8.07;;
815;SDS011;25928;51.062;13.752;2023-01-30T07:15:18;8.57;;;6.77;;
815;SDS011;25928;51.062;13.752;2023-01-30T07:17:44;9.33;;;7.43;;
815;SDS011;25928;51.062;13.752;2023-01-30T07:20:10;12.60;;;7.43;;
815;SDS011;25928;51.062;13.752;2023-01-30T07:22:35;8.27;;;7.33;;
815;SDS011;25928;51.062;13.752;2023-01-30T07:25:01;9.17;;;7.80;;
815;SDS011;25928;51.062;13.752;2023-01-30T07:27:27;8.90;;;7.37;;
815;SDS011;25928;51.062;13.752;2023-01-30T07:29:53;8.90;;;7.03;;
815;SDS011;25928;51.062;13.752;2023-01-30T07:32:18;8.07;;;6.57;;
815;SDS011;25928;51.062;13.752;2023-01-30T07:34:47;9.40;;;6.97;;
815;SDS011;25928;51.062;13.752;2023-01-30T07:37:12;7.70;;;6.30;;
815;SDS011;25928;51.062;13.752;2023-01-30T07:39:39;9.17;;;6.93;;
815;SDS011;25928;51.062;13.752;2023-01-30T07:42:04;8.27;;;6.70;;
815;SDS011;25928;51.062;13.752;2023-01-30T07:44:30;6.90;;;5.93;;
815;SDS011;25928;51.062;13.752;2023-01-30T07:46:57;7.43;;;6.10;;
815;SDS011;25928;51.062;13.752;2023-01-30T07:49:24;7.27;;;5.57;;
815;SDS011;25928;51.062;13.752;2023-01-30T07:51:50;7.00;;;5.43;;
815;SDS011;25928;51.062;13.752;2023-01-30T07:54:16;7.07;;;5.43;;
815;SDS011;25928;51.062;13.752;2023-01-30T07:56:41;7.80;;;6.07;;
815;SDS011;25928;51.062;13.752;2023-01-30T07:59:07;6.90;;;5.87;;
815;SDS011;25928;51.062;13.752;2023-01-30T08:01:37;7.73;;;5.80;;
815;SDS011;25928;51.062;13.752;2023-01-30T08:04:02;7.87;;;6.13;;
815;SDS011;25928;51.062;13.752;2023-01-30T08:06:28;6.97;;;5.00;;
815;SDS011;25928;51.062;13.752;2023-01-30T08:08:54;6.87;;;5.70;;
815;SDS011;25928;51.062;13.752;2023-01-30T08:11:20;6.03;;;5.30;;
815;SDS011;25928;51.062;13.752;2023-01-30T08:13:45;6.47;;;5.50;;
815;SDS011;25928;51.062;13.752;2023-01-30T08:16:11;6.63;;;5.20;;
815;SDS011;25928;51.062;13.752;2023-01-30T08:18:37;6.27;;;4.83;;
815;SDS011;25928;51.062;13.752;2023-01-30T08:21:04;7.00;;;4.80;;
815;SDS011;25928;51.062;13.752;2023-01-30T08:23:31;7.63;;;5.73;;
815;SDS011;25928;51.062;13.752;2023-01-30T08:25:57;7.33;;;5.70;;
815;SDS011;25928;51.062;13.752;2023-01-30T08:28:28;5.97;;;5.13;;
815;SDS011;25928;51.062;13.752;2023-01-30T08:30:54;7.87;;;5.23;;
815;SDS011;25928;51.062;13.752;2023-01-30T08:33:21;5.33;;;4.77;;
815;SDS011;25928;51.062;13.752;2023-01-30T08:35:47;5.90;;;5.30;;
815;SDS011;25928;51.062;13.752;2023-01-30T08:38:13;5.60;;;4.87;;
815;SDS011;25928;51.062;13.752;2023-01-30T08:40:39;6.67;;;5.40;;
815;SDS011;25928;51.062;13.752;2023-01-30T08:43:05;6.53;;;5.13;;
815;SDS011;25928;51.062;13.752;2023-01-30T08:45:31;6.00;;;5.27;;
815;SDS011;25928;51.062;13.752;2023-01-30T08:48:00;5.37;;;4.20;;
815;SDS011;25928;51.062;13.752;2023-01-30T08:50:27;4.50;;;3.90;;
815;SDS011;25928;51.062;13.752;2023-01-30T08:52:53;4.43;;;4.03;;
815;SDS011;25928;51.062;13.752;2023-01-30T08:55:19;3.77;;;3.43;;
815;SDS011;25928;51.062;13.752;2023-01-30T08:57:45;6.20;;;3.87;;
815;SDS011;25928;51.062;13.752;2023-01-30T09:00:11;4.30;;;3.67;;
815;SDS011;25928;51.062;13.752;2023-01-30T09:02:38;4.00;;;3.30;;
815;SDS011;25928;51.062;13.752;2023-01-30T09:05:04;4.13;;;3.50;;
815;SDS011;25928;51.062;13.752;2023-01-30T09:07:30;4.70;;;3.50;;
815;SDS011;25928;51.062;13.752;2023-01-30T09:09:55;6.20;;;5.13;;
815;SDS011;25928;51.062;13.752;2023-01-30T09:12:21;4.37;;;3.10;;
815;SDS011;25928;51.062;13.752;2023-01-30T09:14:47;4.27;;;3.80;;
815;SDS011;25928;51.062;13.752;2023-01-30T09:17:12;5.00;;;3.87;;
815;SDS011;25928;51.062;13.752;2023-01-30T09:19:38;3.23;;;2.93;;
815;SDS011;25928;51.062;13.752;2023-01-30T09:22:04;3.50;;;3.20;;
815;SDS011;25928;51.062;13.752;2023-01-30T09:24:31;4.40;;;3.77;;
815;SDS011;25928;51.062;13.752;2023-01-30T09:26:57;6.97;;;5.10;;
815;SDS011;25928;51.062;13.752;2023-01-30T09:29:23;4.80;;;3.67;;
815;SDS011;25928;51.062;13.752;2023-01-30T09:31:50;4.67;;;4.17;;
815;SDS011;25928;51.062;13.752;2023-01-30T09:34:15;2.97;;;2.67;;
815;SDS011;25928;51.062;13.752;2023-01-30T09:36:41;5.20;;;3.30;;
815;SDS011;25928;51.062;13.752;2023-01-30T09:39:07;3.13;;;2.83;;
815;SDS011;25928;51.062;13.752;2023-01-30T09:52:52;3.47;;;3.07;;
815;SDS011;25928;51.062;13.752;2023-01-30T09:55:27;3.00;;;2.57;;
815;SDS011;25928;51.062;13.752;2023-01-30T09:57:56;3.77;;;3.03;;
815;SDS011;25928;51.062;13.752;2023-01-30T10:05:42;4.53;;;2.33;;
815;SDS011;25928;51.062;13.752;2023-01-30T10:11:13;2.40;;;2.20;;
815;SDS011;25928;51.062;13.752;2023-01-30T10:16:27;2.37;;;2.03;;
815;SDS011;25928;51.062;13.752;2023-01-30T10:21:46;2.33;;;2.13;;
815;SDS011;25928;51.062;13.752;2023-01-30T10:24:34;2.20;;;2.00;;
815;SDS011;25928;51.062;13.752;2023-01-30T10:27:09;1.73;;;1.63;;
815;SDS011;25928;51.062;13.752;2023-01-30T10:29:37;2.37;;;2.17;;
815;SDS011;25928;51.062;13.752;2023-01-30T10:32:12;2.77;;;1.97;;
815;SDS011;25928;51.062;13.752;2023-01-30T10:34:45;2.20;;;1.90;;
815;SDS011;25928;51.062;13.752;2023-01-30T10:40:06;2.80;;;1.93;;
815;SDS011;25928;51.062;13.752;2023-01-30T10:45:25;1.87;;;1.67;;
815;SDS011;25928;51.062;13.752;2023-01-30T10:53:34;2.03;;;1.77;;
815;SDS011;25928;51.062;13.752;2023-01-30T11:03:55;2.50;;;2.07;;
815;SDS011;25928;51.062;13.752;2023-01-30T11:06:25;3.10;;;2.13;;
815;SDS011;25928;51.062;13.752;2023-01-30T11:08:52;2.60;;;1.80;;
815;SDS011;25928;51.062;13.752;2023-01-30T11:14:09;2.60;;;1.80;;
815;SDS011;25928;51.062;13.752;2023-01-30T11:16:41;2.47;;;2.20;;
815;SDS011;25928;51.062;13.752;2023-01-30T11:19:24;2.30;;;1.70;;
815;SDS011;25928;51.062;13.752;2023-01-30T11:21:59;3.03;;;1.77;;
815;SDS011;25928;51.062;13.752;2023-01-30T11:24:29;2.17;;;1.77;;
815;SDS011;25928;51.062;13.752;2023-01-30T11:27:19;3.83;;;2.47;;
815;SDS011;25928;51.062;13.752;2023-01-30T11:29:49;1.93;;;1.70;;
815;SDS011;25928;51.062;13.752;2023-01-30T11:32:27;2.10;;;2.00;;
815;SDS011;25928;51.062;13.752;2023-01-30T11:35:06;3.30;;;2.30;;
815;SDS011;25928;51.062;13.752;2023-01-30T11:37:47;1.97;;;1.77;;
815;SDS011;25928;51.062;13.752;2023-01-30T11:42:45;2.90;;;2.27;;
815;SDS011;25928;51.062;13.752;2023-01-30T11:45:13;2.53;;;2.33;;
815;SDS011;25928;51.062;13.752;2023-01-30T11:47:45;3.07;;;2.77;;
815;SDS011;25928;51.062;13.752;2023-01-30T11:50:18;3.60;;;2.97;;
815;SDS011;25928;51.062;13.752;2023-01-30T11:52:45;2.23;;;2.03;;
815;SDS011;25928;51.062;13.752;2023-01-30T11:55:20;2.60;;;2.40;;
815;SDS011;25928;51.062;13.752;2023-01-30T11:57:48;3.67;;;2.73;;
815;SDS011;25928;51.062;13.752;2023-01-30T12:00:18;2.57;;;2.37;;
815;SDS011;25928;51.062;13.752;2023-01-30T12:02:48;2.87;;;2.17;;
815;SDS011;25928;51.062;13.752;2023-01-30T12:07:52;3.17;;;2.87;;
815;SDS011;25928;51.062;13.752;2023-01-30T12:10:58;6.00;;;2.80;;
815;SDS011;25928;51.062;13.752;2023-01-30T12:16:01;1.70;;;1.60;;
815;SDS011;25928;51.062;13.752;2023-01-30T12:18:36;2.87;;;2.67;;
815;SDS011;25928;51.062;13.752;2023-01-30T12:21:12;3.30;;;1.80;;
815;SDS011;25928;51.062;13.752;2023-01-30T12:24:02;2.90;;;2.37;;
815;SDS011;25928;51.062;13.752;2023-01-30T12:32:38;2.77;;;2.07;;
815;SDS011;25928;51.062;13.752;2023-01-30T12:35:14;2.73;;;1.97;;
815;SDS011;25928;51.062;13.752;2023-01-30T12:37:57;2.23;;;2.03;;
815;SDS011;25928;51.062;13.752;2023-01-30T12:40:37;2.47;;;2.20;;
815;SDS011;25928;51.062;13.752;2023-01-30T12:48:28;2.53;;;2.33;;
815;SDS011;25928;51.062;13.752;2023-01-30T12:51:40;3.30;;;2.50;;
815;SDS011;25928;51.062;13.752;2023-01-30T12:59:58;3.70;;;2.40;;
815;SDS011;25928;51.062;13.752;2023-01-30T13:17:09;4.13;;;2.60;;
815;SDS011;25928;51.062;13.752;2023-01-30T13:19:46;4.00;;;2.67;;
815;SDS011;25928;51.062;13.752;2023-01-30T13:25:26;3.40;;;2.10;;
815;SDS011;25928;51.062;13.752;2023-01-30T13:28:12;4.23;;;2.67;;
815;SDS011;25928;51.062;13.752;2023-01-30T13:30:42;3.77;;;2.73;;
815;SDS011;25928;51.062;13.752;2023-01-30T13:33:13;2.77;;;2.20;;
815;SDS011;25928;51.062;13.752;2023-01-30T13:36:30;4.60;;;2.97;;
815;SDS011;25928;51.062;13.752;2023-01-30T13:39:10;3.27;;;2.20;;
815;SDS011;25928;51.062;13.752;2023-01-30T13:41:40;4.60;;;2.17;;
815;SDS011;25928;51.062;13.752;2023-01-30T13:44:27;2.97;;;2.33;;
815;SDS011;25928;51.062;13.752;2023-01-30T13:46:55;2.70;;;2.27;;
815;SDS011;25928;51.062;13.752;2023-01-30T13:52:41;3.47;;;2.27;;
815;SDS011;25928;51.062;13.752;2023-01-30T13:57:58;3.60;;;2.37;;
815;SDS011;25928;51.062;13.752;2023-01-30T14:00:33;2.00;;;1.83;;
815;SDS011;25928;51.062;13.752;2023-01-30T14:08:28;2.50;;;2.10;;
815;SDS011;25928;51.062;13.752;2023-01-30T14:10:59;1.90;;;1.70;;
815;SDS011;25928;51.062;13.752;2023-01-30T14:13:26;2.33;;;1.97;;
815;SDS011;25928;51.062;13.752;2023-01-30T14:15:53;4.63;;;2.07;;
815;SDS011;25928;51.062;13.752;2023-01-30T14:18:34;4.00;;;2.20;;
815;SDS011;25928;51.062;13.752;2023-01-30T14:23:37;2.50;;;1.93;;
815;SDS011;25928;51.062;13.752;2023-01-30T14:26:03;5.40;;;2.30;;
815;SDS011;25928;51.062;13.752;2023-01-30T14:31:01;7.10;;;2.43;;
815;SDS011;25928;51.062;13.752;2023-01-30T14:38:23;5.90;;;2.33;;
815;SDS011;25928;51.062;13.752;2023-01-30T14:53:55;5.43;;;2.40;;
815;SDS011;25928;51.062;13.752;2023-01-30T14:56:34;2.10;;;1.90;;
815;SDS011;25928;51.062;13.752;2023-01-30T14:59:02;7.33;;;2.70;;
815;SDS011;25928;51.062;13.752;2023-01-30T15:04:30;4.67;;;2.23;;
815;SDS011;25928;51.062;13.752;2023-01-30T15:10:03;3.13;;;1.43;;
815;SDS011;25928;51.062;13.752;2023-01-30T15:12:57;3.40;;;1.60;;
815;SDS011;25928;51.062;13.752;2023-01-30T15:18:28;2.93;;;2.10;;
815;SDS011;25928;51.062;13.752;2023-01-30T15:29:45;5.23;;;1.60;;
815;SDS011;25928;51.062;13.752;2023-01-30T15:32:28;3.33;;;1.50;;
815;SDS011;25928;51.062;13.752;2023-01-30T15:35:10;3.77;;;1.60;;
815;SDS011;25928;51.062;13.752;2023-01-30T15:42:42;4.50;;;1.70;;
815;SDS011;25928;51.062;13.752;2023-01-30T15:45:20;2.60;;;1.90;;
815;SDS011;25928;51.062;13.752;2023-01-30T15:50:25;7.07;;;2.50;;
815;SDS011;25928;51.062;13.752;2023-01-30T15:52:51;4.23;;;2.23;;
815;SDS011;25928;51.062;13.752;2023-01-30T15:57:57;7.60;;;2.27;;
815;SDS011;25928;51.062;13.752;2023-01-30T16:00:34;6.53;;;2.60;;
815;SDS011;25928;51.062;13.752;2023-01-30T16:03:03;7.73;;;2.40;;
815;SDS011;25928;51.062;13.752;2023-01-30T16:05:34;2.93;;;2.23;;
815;SDS011;25928;51.062;13.752;2023-01-30T16:08:08;5.30;;;2.20;;
815;SDS011;25928;51.062;13.752;2023-01-30T16:10:43;6.30;;;3.37;;
815;SDS011;25928;51.062;13.752;2023-01-30T16:13:10;4.00;;;2.90;;
815;SDS011;25928;51.062;13.752;2023-01-30T16:15:40;6.20;;;2.47;;
815;SDS011;25928;51.062;13.752;2023-01-30T16:21:05;5.67;;;2.63;;
815;SDS011;25928;51.062;13.752;2023-01-30T16:23:34;5.37;;;2.30;;
815;SDS011;25928;51.062;13.752;2023-01-30T16:26:02;5.90;;;2.27;;
815;SDS011;25928;51.062;13.752;2023-01-30T16:28:31;5.07;;;2.70;;
815;SDS011;25928;51.062;13.752;2023-01-30T16:33:23;3.50;;;2.30;;
815;SDS011;25928;51.062;13.752;2023-01-30T16:35:49;6.87;;;2.60;;
815;SDS011;25928;51.062;13.752;2023-01-30T16:38:24;6.87;;;2.40;;
815;SDS011;25928;51.062;13.752;2023-01-30T16:40:52;8.30;;;2.93;;
815;SDS011;25928;51.062;13.752;2023-01-30T16:43:19;3.17;;;2.13;;
815;SDS011;25928;51.062;13.752;2023-01-30T16:53:23;10.37;;;2.73;;
815;SDS011;25928;51.062;13.752;2023-01-30T16:56:02;3.50;;;2.30;;
815;SDS011;25928;51.062;13.752;2023-01-30T16:58:32;4.20;;;2.20;;
815;SDS011;25928;51.062;13.752;2023-01-30T17:01:02;4.43;;;2.20;;
815;SDS011;25928;51.062;13.752;2023-01-30T17:03:31;4.90;;;2.07;;
815;SDS011;25928;51.062;13.752;2023-01-30T17:06:19;5.17;;;2.43;;
815;SDS011;25928;51.062;13.752;2023-01-30T17:08:51;5.07;;;2.03;;
815;SDS011;25928;51.062;13.752;2023-01-30T17:11:43;10.70;;;2.40;;
815;SDS011;25928;51.062;13.752;2023-01-30T17:16:36;8.13;;;2.87;;
815;SDS011;25928;51.062;13.752;2023-01-30T17:19:04;7.80;;;2.57;;
815;SDS011;25928;51.062;13.752;2023-01-30T17:21:32;4.13;;;2.03;;
815;SDS011;25928;51.062;13.752;2023-01-30T17:24:10;10.20;;;2.77;;
815;SDS011;25928;51.062;13.752;2023-01-30T17:26:39;10.33;;;3.10;;
815;SDS011;25928;51.062;13.752;2023-01-30T17:29:05;4.47;;;2.20;;
815;SDS011;25928;51.062;13.752;2023-01-30T17:31:30;2.90;;;1.80;;
815;SDS011;25928;51.062;13.752;2023-01-30T17:33:56;7.30;;;2.70;;
815;SDS011;25928;51.062;13.752;2023-01-30T17:36:28;14.70;;;2.97;;
815;SDS011;25928;51.062;13.752;2023-01-30T17:38:55;4.60;;;2.50;;
815;SDS011;25928;51.062;13.752;2023-01-30T17:41:26;8.10;;;1.70;;
815;SDS011;25928;51.062;13.752;2023-01-30T17:43:54;2.63;;;1.60;;
815;SDS011;25928;51.062;13.752;2023-01-30T17:46:21;5.43;;;2.00;;
815;SDS011;25928;51.062;13.752;2023-01-30T17:48:51;4.80;;;1.73;;
815;SDS011;25928;51.062;13.752;2023-01-30T17:51:16;6.47;;;1.60;;
815;SDS011;25928;51.062;13.752;2023-01-30T17:53:42;5.53;;;1.80;;
815;SDS011;25928;51.062;13.752;2023-01-30T17:56:29;5.23;;;1.93;;
815;SDS011;25928;51.062;13.752;2023-01-30T17:59:00;5.33;;;1.90;;
815;SDS011;25928;51.062;13.752;2023-01-30T18:01:26;4.40;;;1.80;;
815;SDS011;25928;51.062;13.752;2023-01-30T18:03:51;3.00;;;1.73;;
815;SDS011;25928;51.062;13.752;2023-01-30T18:06:17;9.67;;;2.33;;
815;SDS011;25928;51.062;13.752;2023-01-30T18:08:43;1.77;;;1.60;;
815;SDS011;25928;51.062;13.752;2023-01-30T18:11:09;6.27;;;2.50;;
815;SDS011;25928;51.062;13.752;2023-01-30T18:13:39;8.90;;;2.13;;
815;SDS011;25928;51.062;13.752;2023-01-30T18:16:28;5.20;;;2.77;;
815;SDS011;25928;51.062;13.752;2023-01-30T18:18:58;6.40;;;2.10;;
815;SDS011;25928;51.062;13.752;2023-01-30T18:21:28;7.33;;;1.97;;
815;SDS011;25928;51.062;13.752;2023-01-30T18:23:53;5.80;;;1.70;;
815;SDS011;25928;51.062;13.752;2023-01-30T18:26:19;8.13;;;2.80;;
815;SDS011;25928;51.062;13.752;2023-01-30T18:28:45;4.63;;;2.37;;
815;SDS011;25928;51.062;13.752;2023-01-30T18:31:11;3.67;;;1.70;;
815;SDS011;25928;51.062;13.752;2023-01-30T18:33:37;5.50;;;1.80;;
815;SDS011;25928;51.062;13.752;2023-01-30T18:36:05;4.87;;;2.90;;